Time;durP1;ratioP1;P1;durP2;ratioP2;P2;SDS_P1;SDS_P2;PMS_P1;PMS_P2;Temp;Humidity;BMP_temperature;BMP_pressure;BME280_temperature;BME280_humidity;BME280_pressure;Samples;Min_cycle;Max_cycle;Signal;HPM_P1;HPM_P2
2024/02/16 00:18:29;;;;;;;1.02;0.75;;;;;;;;;;4979119;28;20566;-64
2024/02/16 00:21:03;;;;;;;1.10;1.00;;;;;;;;;;4980029;28;20055;-62
2024/02/16 00:23:31;;;;;;;1.27;1.02;;;;;;;;;;4979457;28;20461;-66
2024/02/16 00:26:07;;;;;;;0.85;0.85;;;;;;;;;;4976315;28;20055;-66
2024/02/16 00:28:34;;;;;;;1.52;1.08;;;;;;;;;;4976575;28;20168;-66
2024/02/16 00:31:01;;;;;;;2.72;0.85;;;;;;;;;;4977423;28;20050;-65
2024/02/16 00:33:36;;;;;;;1.58;0.75;;;;;;;;;;4977511;28;20145;-59
2024/02/16 00:36:23;;;;;;;1.20;1.10;;;;;;;;;;4978602;28;20061;-51
2024/02/16 00:39:17;;;;;;;1.13;1.02;;;;;;;;;;4979852;28;20054;-53
2024/02/16 00:42:04;;;;;;;1.00;0.90;;;;;;;;;;4977206;28;20073;-53
2024/02/16 00:45:01;;;;;;;1.25;0.95;;;;;;;;;;4977421;28;20145;-47
2024/02/16 00:47:48;;;;;;;0.63;0.63;;;;;;;;;;4977730;28;20519;-50
2024/02/16 00:50:42;;;;;;;1.38;1.00;;;;;;;;;;4974082;28;20043;-51
2024/02/16 00:53:30;;;;;;;0.77;0.77;;;;;;;;;;4964176;28;20055;-67
2024/02/16 00:56:24;;;;;;;1.40;0.90;;;;;;;;;;4971842;28;20140;-67
2024/02/16 00:59:19;;;;;;;0.63;0.63;;;;;;;;;;4978113;28;20129;-66
2024/02/16 01:02:12;;;;;;;0.98;0.75;;;;;;;;;;4979899;28;20062;-47
2024/02/16 01:05:01;;;;;;;1.77;0.93;;;;;;;;;;4977530;28;20050;-58
2024/02/16 01:07:53;;;;;;;0.85;0.75;;;;;;;;;;4974121;28;20042;-60
2024/02/16 01:10:40;;;;;;;0.70;0.70;;;;;;;;;;4979013;28;20062;-59
2024/02/16 01:13:34;;;;;;;0.70;0.70;;;;;;;;;;4965943;28;20054;-58
2024/02/16 01:16:28;;;;;;;1.05;0.80;;;;;;;;;;4976224;28;20058;-58
2024/02/16 01:19:28;;;;;;;0.80;0.60;;;;;;;;;;5001516;28;20710;-58
2024/02/16 01:22:23;;;;;;;0.75;0.60;;;;;;;;;;5005469;28;20058;-63
2024/02/16 01:25:10;;;;;;;1.15;0.82;;;;;;;;;;5012011;28;20482;-62
2024/02/16 01:28:04;;;;;;;0.60;0.60;;;;;;;;;;5012678;28;20062;-62
2024/02/16 01:30:51;;;;;;;0.73;0.70;;;;;;;;;;5011665;28;20053;-67
2024/02/16 01:33:45;;;;;;;3.13;0.88;;;;;;;;;;5017916;28;20073;-51
2024/02/16 01:36:32;;;;;;;1.13;0.70;;;;;;;;;;5004766;28;20061;-50
2024/02/16 01:39:26;;;;;;;0.70;0.70;;;;;;;;;;5010299;28;20477;-55
2024/02/16 01:42:13;;;;;;;0.52;0.50;;;;;;;;;;5010894;28;20080;-47
2024/02/16 01:45:08;;;;;;;0.68;0.60;;;;;;;;;;5016109;28;20057;-48
2024/02/16 01:47:55;;;;;;;3.80;0.90;;;;;;;;;;5012877;28;20249;-52
2024/02/16 01:50:49;;;;;;;1.27;0.50;;;;;;;;;;5012804;28;20193;-63
2024/02/16 01:53:38;;;;;;;1.27;0.95;;;;;;;;;;5010136;28;20091;-63
2024/02/16 01:56:32;;;;;;;0.85;0.60;;;;;;;;;;5013431;28;20111;-63
2024/02/16 01:59:19;;;;;;;1.02;0.73;;;;;;;;;;5018577;28;20513;-60
2024/02/16 02:02:14;;;;;;;0.85;0.60;;;;;;;;;;5011309;28;20049;-64
2024/02/16 02:05:01;;;;;;;0.68;0.65;;;;;;;;;;5006734;28;20050;-62
2024/02/16 02:07:55;;;;;;;0.50;0.50;;;;;;;;;;5016094;28;20045;-63
2024/02/16 02:10:49;;;;;;;0.55;0.40;;;;;;;;;;5015393;28;20049;-63
2024/02/16 02:13:44;;;;;;;0.60;0.60;;;;;;;;;;5013614;28;20057;-62
2024/02/16 02:16:38;;;;;;;2.13;0.57;;;;;;;;;;5006144;28;20102;-63
2024/02/16 02:19:39;;;;;;;0.40;0.40;;;;;;;;;;4962721;28;20050;-61
2024/02/16 02:22:27;;;;;;;0.38;0.38;;;;;;;;;;4970400;28;20055;-59
2024/02/16 02:25:20;;;;;;;0.40;0.40;;;;;;;;;;4976379;28;20050;-60
2024/02/16 02:28:08;;;;;;;0.50;0.50;;;;;;;;;;4980073;28;20046;-59
2024/02/16 02:31:01;;;;;;;0.68;0.68;;;;;;;;;;4979668;28;20577;-66
2024/02/16 02:33:48;;;;;;;0.50;0.40;;;;;;;;;;4973784;28;20062;-66
2024/02/16 02:36:42;;;;;;;1.75;0.60;;;;;;;;;;4972612;28;20202;-66
2024/02/16 02:39:29;;;;;;;0.52;0.52;;;;;;;;;;4971486;28;20666;-67
2024/02/16 02:42:23;;;;;;;0.52;0.40;;;;;;;;;;4980577;28;20066;-66
2024/02/16 02:45:11;;;;;;;0.35;0.35;;;;;;;;;;4977005;28;20061;-67
2024/02/16 02:48:04;;;;;;;0.68;0.60;;;;;;;;;;4975060;28;20133;-66
2024/02/16 02:50:51;;;;;;;0.40;0.40;;;;;;;;;;4979612;28;20059;-66
2024/02/16 02:53:45;;;;;;;0.55;0.55;;;;;;;;;;4975938;28;20063;-66
2024/02/16 02:56:32;;;;;;;0.73;0.60;;;;;;;;;;4980785;28;20060;-57
2024/02/16 02:59:26;;;;;;;0.88;0.55;;;;;;;;;;4980645;28;20169;-62
2024/02/16 03:02:13;;;;;;;1.35;0.60;;;;;;;;;;4978845;28;20058;-62
2024/02/16 03:05:07;;;;;;;1.98;0.90;;;;;;;;;;4973091;28;20513;-62
2024/02/16 03:07:55;;;;;;;0.88;0.80;;;;;;;;;;4976974;28;20131;-62
2024/02/16 03:10:48;;;;;;;0.75;0.70;;;;;;;;;;4979724;28;20731;-63
2024/02/16 03:13:35;;;;;;;1.05;0.80;;;;;;;;;;4977513;28;20138;-63
2024/02/16 03:16:42;;;;;;;0.88;0.70;;;;;;;;;;4975204;28;20054;-63
2024/02/16 03:19:36;;;;;;;1.05;0.75;;;;;;;;;;4984963;28;20050;-63
2024/02/16 03:22:30;;;;;;;1.38;1.10;;;;;;;;;;4994383;28;20066;-63
2024/02/16 03:25:17;;;;;;;1.27;0.90;;;;;;;;;;4991219;28;20058;-54
2024/02/16 03:28:14;;;;;;;0.98;0.80;;;;;;;;;;4998566;28;20460;-60
2024/02/16 03:31:03;;;;;;;1.52;1.27;;;;;;;;;;4987355;28;20058;-57
2024/02/16 03:33:55;;;;;;;1.20;0.88;;;;;;;;;;4996445;28;24006;-59
2024/02/16 03:36:43;;;;;;;1.88;0.95;;;;;;;;;;4995633;28;20050;-55
2024/02/16 03:39:37;;;;;;;0.85;0.82;;;;;;;;;;4991609;28;24032;-57
2024/02/16 03:42:24;;;;;;;1.17;1.05;;;;;;;;;;4994705;28;20050;-52
2024/02/16 03:45:18;;;;;;;1.15;0.80;;;;;;;;;;4986268;28;20505;-62
2024/02/16 03:48:05;;;;;;;0.80;0.80;;;;;;;;;;4995614;28;20069;-62
2024/02/16 03:50:59;;;;;;;1.85;0.98;;;;;;;;;;4992377;28;20069;-63
2024/02/16 03:53:53;;;;;;;1.13;0.88;;;;;;;;;;4994636;28;20068;-63
2024/02/16 03:56:40;;;;;;;1.20;0.85;;;;;;;;;;4990237;28;20505;-64
2024/02/16 03:59:34;;;;;;;2.03;1.10;;;;;;;;;;4990570;28;20491;-63
2024/02/16 04:02:21;;;;;;;4.38;1.20;;;;;;;;;;4998939;28;20101;-62
2024/02/16 04:05:15;;;;;;;2.08;1.20;;;;;;;;;;4989543;28;20058;-63
2024/02/16 04:08:03;;;;;;;6.70;1.30;;;;;;;;;;4991205;28;20046;-63
2024/02/16 04:10:56;;;;;;;1.48;1.10;;;;;;;;;;4991265;28;20136;-63
2024/02/16 04:13:44;;;;;;;1.20;1.10;;;;;;;;;;4992008;28;20093;-55
2024/02/16 04:16:44;;;;;;;3.03;1.33;;;;;;;;;;4992993;28;20054;-45
2024/02/16 04:19:31;;;;;;;2.45;1.33;;;;;;;;;;4970138;28;20053;-49
2024/02/16 04:22:25;;;;;;;1.35;1.23;;;;;;;;;;4973813;28;20058;-48
2024/02/16 04:25:13;;;;;;;1.73;1.35;;;;;;;;;;4975136;28;20053;-49
2024/02/16 04:28:06;;;;;;;1.63;1.35;;;;;;;;;;4975915;28;20065;-50
2024/02/16 04:30:53;;;;;;;1.83;1.48;;;;;;;;;;4977148;28;20078;-58
2024/02/16 04:33:47;;;;;;;2.05;1.50;;;;;;;;;;4975771;28;20150;-56
2024/02/16 04:36:34;;;;;;;10.27;2.58;;;;;;;;;;4974675;28;20077;-55
2024/02/16 04:39:29;;;;;;;1.63;1.33;;;;;;;;;;4975410;28;20058;-46
2024/02/16 04:42:15;;;;;;;2.40;1.70;;;;;;;;;;4972727;28;20766;-55
2024/02/16 04:45:12;;;;;;;5.60;1.88;;;;;;;;;;4968857;28;20483;-59
2024/02/16 04:48:03;;;;;;;4.18;2.17;;;;;;;;;;4972796;28;20046;-57
2024/02/16 04:50:57;;;;;;;2.42;1.63;;;;;;;;;;4970283;28;20542;-58
2024/02/16 04:53:44;;;;;;;131.40;9.63;;;;;;;;;;4974923;28;20503;-56
2024/02/16 04:56:39;;;;;;;3.15;1.90;;;;;;;;;;4971477;28;20130;-57
2024/02/16 04:59:25;;;;;;;3.97;1.92;;;;;;;;;;4970156;28;20058;-64
2024/02/16 05:02:19;;;;;;;4.85;2.28;;;;;;;;;;4970969;28;20065;-64
2024/02/16 05:05:06;;;;;;;23.38;2.97;;;;;;;;;;4977657;28;20510;-64
2024/02/16 05:08:00;;;;;;;16.92;2.92;;;;;;;;;;4975057;28;20051;-63
2024/02/16 05:10:47;;;;;;;13.65;3.00;;;;;;;;;;4976830;28;20058;-65
2024/02/16 05:13:42;;;;;;;11.20;3.10;;;;;;;;;;4976260;28;20578;-65
2024/02/16 05:16:29;;;;;;;7.50;3.30;;;;;;;;;;4975469;28;20054;-65
2024/02/16 05:19:34;;;;;;;7.43;2.90;;;;;;;;;;4976788;28;20050;-65
2024/02/16 05:22:27;;;;;;;73.68;6.47;;;;;;;;;;4979317;28;20054;-65
2024/02/16 05:25:15;;;;;;;38.95;4.70;;;;;;;;;;4976176;28;20494;-64
2024/02/16 05:28:09;;;;;;;12.77;3.95;;;;;;;;;;4978979;28;20415;-66
2024/02/16 05:30:56;;;;;;;8.43;3.35;;;;;;;;;;4977731;28;20057;-58
2024/02/16 05:33:50;;;;;;;20.92;5.25;;;;;;;;;;4976171;28;20552;-57
2024/02/16 05:36:38;;;;;;;26.75;6.55;;;;;;;;;;4979210;28;20065;-59
2024/02/16 05:39:34;;;;;;;104.35;10.60;;;;;;;;;;4977464;28;20062;-58
2024/02/16 05:42:22;;;;;;;99.18;11.32;;;;;;;;;;4978117;28;20536;-58
2024/02/16 05:45:14;;;;;;;654.00;38.97;;;;;;;;;;4974766;28;20129;-63
2024/02/16 05:48:02;;;;;;;560.22;29.85;;;;;;;;;;4965222;28;20549;-60
2024/02/16 05:51:01;;;;;;;733.80;38.30;;;;;;;;;;4974490;28;20508;-60
2024/02/16 05:53:48;;;;;;;1038.60;55.30;;;;;;;;;;4977051;28;20050;-60
2024/02/16 05:56:42;;;;;;;837.10;53.30;;;;;;;;;;4975665;28;20054;-60
2024/02/16 05:59:29;;;;;;;893.10;46.42;;;;;;;;;;4977083;28;20054;-60
2024/02/16 06:02:25;;;;;;;1322.05;82.75;;;;;;;;;;4978348;28;20521;-61
2024/02/16 06:05:13;;;;;;;881.38;48.60;;;;;;;;;;4970112;28;20054;-61
2024/02/16 06:08:08;;;;;;;433.55;25.17;;;;;;;;;;4975042;28;20050;-60
2024/02/16 06:10:57;;;;;;;623.70;33.22;;;;;;;;;;4976847;28;20057;-60
2024/02/16 06:13:57;;;;;;;201.90;12.80;;;;;;;;;;4973523;28;20152;-60
2024/02/16 06:16:46;;;;;;;181.82;11.63;;;;;;;;;;4976778;28;20062;-60
2024/02/16 06:19:47;;;;;;;34.63;7.18;;;;;;;;;;4974211;28;20605;-60
2024/02/16 06:22:34;;;;;;;25.13;5.65;;;;;;;;;;4972377;28;20149;-62
2024/02/16 06:25:28;;;;;;;21.48;5.30;;;;;;;;;;4962887;28;20070;-62
2024/02/16 06:28:15;;;;;;;27.42;6.72;;;;;;;;;;4973526;28;20062;-62
2024/02/16 06:31:10;;;;;;;322.65;19.80;;;;;;;;;;4973114;28;20522;-62
2024/02/16 06:33:56;;;;;;;280.50;18.83;;;;;;;;;;4972896;28;20046;-61
2024/02/16 06:36:50;;;;;;;439.33;24.98;;;;;;;;;;4973261;28;20050;-61
2024/02/16 06:39:37;;;;;;;113.68;12.95;;;;;;;;;;4976197;28;20058;-64
2024/02/16 06:42:31;;;;;;;439.38;26.00;;;;;;;;;;4974530;28;20054;-64
2024/02/16 06:45:18;;;;;;;39.85;9.23;;;;;;;;;;4976093;28;20153;-62
2024/02/16 06:48:12;;;;;;;31.35;10.40;;;;;;;;;;4976729;28;20058;-61
2024/02/16 06:50:59;;;;;;;456.67;34.28;;;;;;;;;;4975972;28;20062;-62
2024/02/16 06:53:53;;;;;;;70.38;12.93;;;;;;;;;;4972703;28;20069;-61
2024/02/16 06:56:47;;;;;;;448.63;31.40;;;;;;;;;;4974152;28;20502;-62
2024/02/16 06:59:41;;;;;;;602.92;37.15;;;;;;;;;;4963179;28;20062;-53
2024/02/16 07:02:35;;;;;;;1232.60;73.22;;;;;;;;;;4969258;28;20061;-65
2024/02/16 07:05:23;;;;;;;1080.68;60.40;;;;;;;;;;4974160;28;20046;-64
2024/02/16 07:08:16;;;;;;;158.00;15.90;;;;;;;;;;4969709;28;20054;-64
2024/02/16 07:11:04;;;;;;;246.05;20.63;;;;;;;;;;4973199;28;20062;-65
2024/02/16 07:13:59;;;;;;;316.38;25.30;;;;;;;;;;4971107;28;20058;-65
2024/02/16 07:16:44;;;;;;;414.23;31.08;;;;;;;;;;4970115;28;20054;-64
2024/02/16 07:19:45;;;;;;;399.70;28.70;;;;;;;;;;4976370;28;20077;-64
2024/02/16 07:22:33;;;;;;;409.05;28.58;;;;;;;;;;4970404;28;20518;-64
2024/02/16 07:25:27;;;;;;;331.73;24.30;;;;;;;;;;4965755;28;20050;-64
2024/02/16 07:28:13;;;;;;;214.70;21.75;;;;;;;;;;4974927;28;20395;-65
2024/02/16 07:31:07;;;;;;;169.75;17.98;;;;;;;;;;4975217;28;20050;-64
2024/02/16 07:33:54;;;;;;;87.43;11.93;;;;;;;;;;4976882;28;20055;-64
2024/02/16 07:36:48;;;;;;;34.80;9.40;;;;;;;;;;4976373;28;20553;-64
2024/02/16 07:39:42;;;;;;;26.20;8.65;;;;;;;;;;4971011;28;20059;-64
2024/02/16 07:42:29;;;;;;;27.88;8.82;;;;;;;;;;4971022;28;20619;-64
2024/02/16 07:45:23;;;;;;;67.75;13.13;;;;;;;;;;4977196;28;20502;-63
2024/02/16 07:48:10;;;;;;;87.55;11.55;;;;;;;;;;4972263;28;20394;-64
2024/02/16 07:51:04;;;;;;;19.23;7.38;;;;;;;;;;4975741;28;20138;-64
2024/02/16 07:53:51;;;;;;;18.10;7.80;;;;;;;;;;4974670;28;20128;-62
2024/02/16 07:56:45;;;;;;;31.02;9.82;;;;;;;;;;4969932;28;20479;-47
2024/02/16 07:59:32;;;;;;;14.30;6.53;;;;;;;;;;4974401;28;20058;-48
2024/02/16 08:02:26;;;;;;;20.23;6.88;;;;;;;;;;4976956;28;20105;-50
2024/02/16 08:05:22;;;;;;;26.00;8.48;;;;;;;;;;4978344;28;20609;-52
2024/02/16 08:08:07;;;;;;;20.52;7.82;;;;;;;;;;4969867;28;20062;-50
2024/02/16 08:11:02;;;;;;;17.13;7.97;;;;;;;;;;4975581;28;20050;-50
2024/02/16 08:14:00;;;;;;;17.40;7.07;;;;;;;;;;4977812;28;20140;-56
2024/02/16 08:16:43;;;;;;;29.83;9.38;;;;;;;;;;4974520;28;20054;-64
2024/02/16 08:19:58;;;;;;;17.23;7.68;;;;;;;;;;4979265;28;20065;-65
2024/02/16 08:22:45;;;;;;;14.45;7.32;;;;;;;;;;4978021;28;20846;-65
2024/02/16 08:25:39;;;;;;;17.23;7.43;;;;;;;;;;4973564;28;20054;-65
2024/02/16 08:28:26;;;;;;;16.00;7.95;;;;;;;;;;4976186;28;20062;-64
2024/02/16 08:31:20;;;;;;;20.40;9.02;;;;;;;;;;4977124;28;20052;-57
2024/02/16 08:34:07;;;;;;;24.40;9.82;;;;;;;;;;4975817;28;22112;-61
2024/02/16 08:37:01;;;;;;;23.77;8.73;;;;;;;;;;4978035;28;20046;-61
2024/02/16 08:39:55;;;;;;;22.42;9.45;;;;;;;;;;4983327;28;20395;-61
2024/02/16 08:42:49;;;;;;;27.20;9.77;;;;;;;;;;4979751;28;20067;-61
2024/02/16 08:45:36;;;;;;;20.85;9.20;;;;;;;;;;4982579;28;20069;-61
2024/02/16 08:48:30;;;;;;;21.77;9.65;;;;;;;;;;4978848;28;20046;-61
2024/02/16 08:51:18;;;;;;;25.77;9.82;;;;;;;;;;4979623;28;20058;-64
2024/02/16 08:54:11;;;;;;;59.42;12.63;;;;;;;;;;4973941;28;20065;-47
2024/02/16 08:57:05;;;;;;;18.10;9.02;;;;;;;;;;4975639;28;20058;-50
2024/02/16 08:59:59;;;;;;;23.80;9.90;;;;;;;;;;4976535;28;20252;-51
2024/02/16 09:02:53;;;;;;;19.38;9.13;;;;;;;;;;4976571;28;20101;-47
2024/02/16 09:05:40;;;;;;;17.30;8.90;;;;;;;;;;4978968;28;20061;-48
2024/02/16 09:08:35;;;;;;;15.32;7.65;;;;;;;;;;4977950;28;20074;-57
2024/02/16 09:11:22;;;;;;;13.20;7.75;;;;;;;;;;4974935;28;20426;-64
2024/02/16 09:14:16;;;;;;;13.00;7.70;;;;;;;;;;4968685;28;20086;-65
2024/02/16 09:17:03;;;;;;;23.33;9.77;;;;;;;;;;4973854;28;20051;-65
2024/02/16 09:19:57;;;;;;;15.88;9.07;;;;;;;;;;4976744;28;20118;-65
2024/02/16 09:22:46;;;;;;;22.52;10.45;;;;;;;;;;4977843;28;20112;-64
2024/02/16 09:25:39;;;;;;;19.00;9.13;;;;;;;;;;4977235;28;20050;-49
2024/02/16 09:28:26;;;;;;;22.17;9.32;;;;;;;;;;4977981;28;20050;-52
2024/02/16 09:31:19;;;;;;;20.33;10.80;;;;;;;;;;4972396;28;20058;-49
2024/02/16 09:34:13;;;;;;;14.07;9.07;;;;;;;;;;4964913;28;20051;-47
2024/02/16 09:37:11;;;;;;;19.80;10.75;;;;;;;;;;4969710;28;20058;-49
2024/02/16 09:39:57;;;;;;;21.05;9.55;;;;;;;;;;4974020;28;20057;-49
2024/02/16 09:42:51;;;;;;;15.38;8.95;;;;;;;;;;4972397;28;20137;-54
2024/02/16 09:45:38;;;;;;;22.63;11.60;;;;;;;;;;4976801;28;20057;-59
2024/02/16 09:48:32;;;;;;;18.20;10.68;;;;;;;;;;4975150;28;20533;-66
2024/02/16 09:51:20;;;;;;;17.38;11.00;;;;;;;;;;4972854;28;20046;-65
2024/02/16 09:54:14;;;;;;;19.52;10.90;;;;;;;;;;4969675;28;20141;-65
2024/02/16 09:57:04;;;;;;;21.17;12.20;;;;;;;;;;4973257;28;20589;-65
2024/02/16 09:59:56;;;;;;;24.20;13.63;;;;;;;;;;4968068;28;20588;-66
2024/02/16 10:02:45;;;;;;;30.05;15.02;;;;;;;;;;4969760;28;20589;-54
2024/02/16 10:05:38;;;;;;;35.78;16.90;;;;;;;;;;4954680;28;20357;-58
2024/02/16 10:08:25;;;;;;;38.72;18.88;;;;;;;;;;4969776;28;20046;-58
2024/02/16 10:11:20;;;;;;;37.53;19.30;;;;;;;;;;4972905;28;20073;-59
2024/02/16 10:14:25;;;;;;;46.92;20.55;;;;;;;;;;4972314;28;20409;-60
2024/02/16 10:17:32;;;;;;;47.88;22.65;;;;;;;;;;4972801;28;20069;-58
2024/02/16 10:20:26;;;;;;;49.50;22.92;;;;;;;;;;4974127;28;20131;-59
2024/02/16 10:23:20;;;;;;;52.80;23.55;;;;;;;;;;4993112;28;20058;-61
2024/02/16 10:26:10;;;;;;;43.92;22.13;;;;;;;;;;4999344;28;20376;-61
2024/02/16 10:28:46;;;;;;;43.25;22.55;;;;;;;;;;4996229;28;20065;-61
2024/02/16 10:31:13;;;;;;;45.05;23.10;;;;;;;;;;4988805;28;20054;-61
2024/02/16 10:33:47;;;;;;;50.05;23.92;;;;;;;;;;4994374;28;20046;-62
2024/02/16 10:36:41;;;;;;;45.85;23.77;;;;;;;;;;4992212;28;20469;-61
2024/02/16 10:39:38;;;;;;;46.83;23.52;;;;;;;;;;4991575;28;20057;-64
2024/02/16 10:42:30;;;;;;;54.83;25.65;;;;;;;;;;4993446;28;20141;-63
2024/02/16 10:45:18;;;;;;;66.68;27.80;;;;;;;;;;4984215;28;20403;-61
2024/02/16 10:48:12;;;;;;;87.15;30.45;;;;;;;;;;4993411;28;20065;-62
2024/02/16 10:50:59;;;;;;;52.63;25.05;;;;;;;;;;4989913;28;20105;-62
2024/02/16 10:53:54;;;;;;;57.38;26.05;;;;;;;;;;4994332;28;20072;-61
2024/02/16 10:56:42;;;;;;;51.95;24.08;;;;;;;;;;4994611;28;23457;-65
2024/02/16 10:59:55;;;;;;;51.72;24.80;;;;;;;;;;4999234;28;20046;-66
2024/02/16 11:02:56;;;;;;;57.22;26.10;;;;;;;;;;4999789;28;20245;-64
2024/02/16 11:05:48;;;;;;;48.03;23.95;;;;;;;;;;4995691;28;20438;-65
2024/02/16 11:08:38;;;;;;;73.53;29.23;;;;;;;;;;4997301;28;20104;-64
2024/02/16 11:11:34;;;;;;;60.28;27.67;;;;;;;;;;4995310;28;20053;-64
2024/02/16 11:14:54;;;;;;;76.30;29.75;;;;;;;;;;4998206;28;20061;-66
2024/02/16 11:17:44;;;;;;;62.95;27.42;;;;;;;;;;4991197;28;20068;-66
2024/02/16 11:20:45;;;;;;;77.15;30.63;;;;;;;;;;4976673;28;20046;-63
2024/02/16 11:23:40;;;;;;;79.28;31.80;;;;;;;;;;4975111;28;20077;-64
2024/02/16 11:26:29;;;;;;;77.65;31.73;;;;;;;;;;4972292;28;20061;-64
2024/02/16 11:29:24;;;;;;;104.38;37.05;;;;;;;;;;4977472;28;20061;-63
2024/02/16 11:32:11;;;;;;;81.07;32.67;;;;;;;;;;4974836;28;20065;-63
2024/02/16 11:35:08;;;;;;;98.82;35.35;;;;;;;;;;4977803;28;20062;-57
2024/02/16 11:37:56;;;;;;;89.80;31.08;;;;;;;;;;4975604;28;20046;-60
2024/02/16 11:41:08;;;;;;;76.85;31.95;;;;;;;;;;4972467;28;20105;-59
2024/02/16 11:43:59;;;;;;;85.22;34.45;;;;;;;;;;4973659;28;20125;-59
2024/02/16 11:46:56;;;;;;;85.53;34.78;;;;;;;;;;4976091;28;20054;-58
2024/02/16 11:49:43;;;;;;;96.82;34.83;;;;;;;;;;4972857;28;20109;-56
2024/02/16 11:52:38;;;;;;;92.55;35.40;;;;;;;;;;4976463;28;20450;-62
2024/02/16 11:55:26;;;;;;;94.72;33.92;;;;;;;;;;4974754;28;20062;-64
2024/02/16 11:58:20;;;;;;;107.68;37.35;;;;;;;;;;4973396;28;20069;-65
2024/02/16 12:01:11;;;;;;;107.57;37.47;;;;;;;;;;4973611;28;20054;-65
2024/02/16 12:04:05;;;;;;;99.28;36.72;;;;;;;;;;4974828;28;20089;-65
2024/02/16 12:06:59;;;;;;;102.95;37.03;;;;;;;;;;4973856;28;20058;-65
2024/02/16 12:10:00;;;;;;;110.43;39.08;;;;;;;;;;4971803;28;20054;-64
2024/02/16 12:12:54;;;;;;;70.38;34.45;;;;;;;;;;4974623;28;20580;-61
2024/02/16 12:15:42;;;;;;;96.93;37.95;;;;;;;;;;4975829;28;20058;-55
2024/02/16 12:18:43;;;;;;;102.50;38.67;;;;;;;;;;4975670;28;20068;-53
2024/02/16 12:21:38;;;;;;;108.93;39.50;;;;;;;;;;4975740;28;20054;-55
2024/02/16 12:24:32;;;;;;;105.13;40.47;;;;;;;;;;4977768;28;20066;-54
2024/02/16 12:27:30;;;;;;;98.32;40.67;;;;;;;;;;4970858;28;20054;-53
2024/02/16 12:30:23;;;;;;;114.78;42.20;;;;;;;;;;4970791;28;20356;-51
2024/02/16 12:33:10;;;;;;;92.95;37.92;;;;;;;;;;4974475;28;20502;-48
2024/02/16 12:36:04;;;;;;;91.32;38.90;;;;;;;;;;4972295;28;20714;-46
2024/02/16 12:38:52;;;;;;;105.43;39.78;;;;;;;;;;4958749;28;20055;-48
2024/02/16 12:41:45;;;;;;;110.65;40.67;;;;;;;;;;4972368;28;20495;-51
2024/02/16 12:44:32;;;;;;;81.43;33.00;;;;;;;;;;4975850;28;20058;-50
2024/02/16 12:47:26;;;;;;;96.18;36.97;;;;;;;;;;4976018;28;20152;-61
2024/02/16 12:50:13;;;;;;;79.50;34.00;;;;;;;;;;4978058;28;20100;-65
2024/02/16 12:53:08;;;;;;;71.97;33.60;;;;;;;;;;4977236;28;20058;-61
2024/02/16 12:55:55;;;;;;;78.25;35.28;;;;;;;;;;4975532;28;20050;-61
2024/02/16 12:58:49;;;;;;;89.18;39.50;;;;;;;;;;4975105;28;20468;-61
2024/02/16 13:01:43;;;;;;;91.57;37.90;;;;;;;;;;4972816;28;20073;-61
2024/02/16 13:04:37;;;;;;;65.38;32.65;;;;;;;;;;4979392;28;20141;-60
2024/02/16 13:07:25;;;;;;;78.32;34.40;;;;;;;;;;4975259;28;20050;-60
2024/02/16 13:10:19;;;;;;;68.10;31.05;;;;;;;;;;4974719;28;20473;-65
2024/02/16 13:13:05;;;;;;;53.25;27.70;;;;;;;;;;4975367;28;20140;-63
2024/02/16 13:15:59;;;;;;;52.42;27.85;;;;;;;;;;4978808;28;20054;-64
2024/02/16 13:18:53;;;;;;;48.13;24.83;;;;;;;;;;4983655;28;20112;-64
2024/02/16 13:21:46;;;;;;;51.78;25.88;;;;;;;;;;4990568;28;20086;-64
2024/02/16 13:24:34;;;;;;;43.55;23.75;;;;;;;;;;4984208;28;20069;-52
2024/02/16 13:27:27;;;;;;;39.72;24.00;;;;;;;;;;4985928;28;20631;-56
2024/02/16 13:30:14;;;;;;;38.25;20.60;;;;;;;;;;4993920;28;20053;-55
2024/02/16 13:33:09;;;;;;;39.50;21.45;;;;;;;;;;4988345;28;20046;-52
2024/02/16 13:36:03;;;;;;;39.58;21.98;;;;;;;;;;4993721;28;20144;-54
2024/02/16 13:38:56;;;;;;;37.00;21.95;;;;;;;;;;4996806;28;20123;-50
2024/02/16 13:41:46;;;;;;;40.42;21.95;;;;;;;;;;4990129;28;20494;-53
2024/02/16 13:44:37;;;;;;;40.30;21.75;;;;;;;;;;4998463;28;20049;-48
2024/02/16 13:47:25;;;;;;;38.28;20.55;;;;;;;;;;4987968;28;20042;-61
2024/02/16 13:50:19;;;;;;;37.67;20.80;;;;;;;;;;4977026;28;20425;-61
2024/02/16 13:53:07;;;;;;;42.17;22.25;;;;;;;;;;4990760;28;20083;-61
2024/02/16 13:56:03;;;;;;;44.55;22.33;;;;;;;;;;4993828;28;20430;-61
2024/02/16 13:58:47;;;;;;;33.78;20.10;;;;;;;;;;4991129;28;20143;-61
2024/02/16 14:01:45;;;;;;;36.63;20.73;;;;;;;;;;4991136;28;20065;-65
2024/02/16 14:04:32;;;;;;;32.90;19.38;;;;;;;;;;4990408;28;20062;-65
2024/02/16 14:07:26;;;;;;;40.28;21.08;;;;;;;;;;4987482;28;20122;-66
2024/02/16 14:10:26;;;;;;;36.60;21.10;;;;;;;;;;4989967;28;20057;-66
2024/02/16 14:13:21;;;;;;;33.40;19.58;;;;;;;;;;4990630;28;20149;-66
2024/02/16 14:16:14;;;;;;;40.70;23.48;;;;;;;;;;4991489;28;20046;-66
2024/02/16 14:19:15;;;;;;;63.40;38.63;;;;;;;;;;4974703;28;20050;-62
2024/02/16 14:22:12;;;;;;;34.08;20.58;;;;;;;;;;4970997;28;20058;-51
2024/02/16 14:24:56;;;;;;;31.20;18.67;;;;;;;;;;4975161;28;20157;-49
2024/02/16 14:27:50;;;;;;;36.85;18.77;;;;;;;;;;4970739;28;20073;-50
2024/02/16 14:30:37;;;;;;;31.73;17.38;;;;;;;;;;4977177;28;20057;-49
2024/02/16 14:33:31;;;;;;;29.42;17.00;;;;;;;;;;4979704;28;20057;-49
2024/02/16 14:36:19;;;;;;;38.03;17.60;;;;;;;;;;4980476;28;20073;-50
2024/02/16 14:39:12;;;;;;;28.48;16.02;;;;;;;;;;4978979;28;20090;-57
2024/02/16 14:41:59;;;;;;;35.85;17.27;;;;;;;;;;4979583;28;20055;-56
2024/02/16 14:44:53;;;;;;;26.58;14.38;;;;;;;;;;4976898;28;20086;-55
2024/02/16 14:47:40;;;;;;;21.98;12.35;;;;;;;;;;4980121;28;20054;-52
2024/02/16 14:50:35;;;;;;;30.63;13.77;;;;;;;;;;4981009;28;20042;-55
2024/02/16 14:53:22;;;;;;;22.05;13.07;;;;;;;;;;4977930;28;20054;-58
2024/02/16 14:56:18;;;;;;;20.98;10.68;;;;;;;;;;4978007;28;20054;-62
2024/02/16 14:59:05;;;;;;;22.17;10.65;;;;;;;;;;4980731;28;20047;-68
2024/02/16 15:01:58;;;;;;;31.80;12.05;;;;;;;;;;4979627;28;20053;-65
2024/02/16 15:04:44;;;;;;;17.40;9.38;;;;;;;;;;4979268;28;20119;-66
2024/02/16 15:07:38;;;;;;;18.17;8.27;;;;;;;;;;4978483;28;20537;-65
2024/02/16 15:10:25;;;;;;;13.98;9.07;;;;;;;;;;4980630;28;20598;-65
2024/02/16 15:13:20;;;;;;;20.20;13.32;;;;;;;;;;4980097;28;20065;-66
2024/02/16 15:16:08;;;;;;;13.20;7.97;;;;;;;;;;4981135;28;20058;-51
2024/02/16 15:19:16;;;;;;;10.27;7.75;;;;;;;;;;4978168;28;20395;-57
2024/02/16 15:22:10;;;;;;;9.80;7.38;;;;;;;;;;4979386;28;21055;-57
2024/02/16 15:25:15;;;;;;;11.38;7.25;;;;;;;;;;4979127;28;20085;-54
2024/02/16 15:28:04;;;;;;;15.18;7.63;;;;;;;;;;4979101;28;20118;-55
2024/02/16 15:30:57;;;;;;;12.93;7.80;;;;;;;;;;4978352;28;20051;-56
2024/02/16 15:33:44;;;;;;;9.55;6.57;;;;;;;;;;4975793;28;20580;-49
2024/02/16 15:36:39;;;;;;;7.75;6.05;;;;;;;;;;4975918;28;20054;-65
2024/02/16 15:39:26;;;;;;;12.93;6.75;;;;;;;;;;4976201;28;20206;-65
2024/02/16 15:42:19;;;;;;;6.10;4.75;;;;;;;;;;4976007;28;20513;-65
2024/02/16 15:45:07;;;;;;;9.90;6.07;;;;;;;;;;4978431;28;20903;-64
2024/02/16 15:48:01;;;;;;;7.35;5.10;;;;;;;;;;4976453;28;20038;-65
2024/02/16 15:50:49;;;;;;;7.45;5.55;;;;;;;;;;4976584;28;20498;-61
2024/02/16 15:53:42;;;;;;;10.95;6.00;;;;;;;;;;4974108;28;20506;-63
2024/02/16 15:56:30;;;;;;;10.38;6.47;;;;;;;;;;4977020;28;20502;-65
2024/02/16 15:59:27;;;;;;;11.90;6.93;;;;;;;;;;4980256;28;20394;-65
2024/02/16 16:02:14;;;;;;;13.48;8.95;;;;;;;;;;4978185;28;20421;-65
2024/02/16 16:05:09;;;;;;;9.07;6.80;;;;;;;;;;4973105;28;20066;-65
2024/02/16 16:07:56;;;;;;;11.23;7.33;;;;;;;;;;4971799;28;20054;-65
2024/02/16 16:10:50;;;;;;;10.93;8.02;;;;;;;;;;4971797;28;20116;-55
2024/02/16 16:13:38;;;;;;;9.32;6.90;;;;;;;;;;4975074;28;20046;-48
2024/02/16 16:16:31;;;;;;;13.10;8.35;;;;;;;;;;4973393;28;20054;-49
2024/02/16 16:19:25;;;;;;;14.80;8.32;;;;;;;;;;4971766;28;22215;-50
2024/02/16 16:22:19;;;;;;;13.05;8.30;;;;;;;;;;4971870;28;20070;-47
2024/02/16 16:25:07;;;;;;;17.60;9.50;;;;;;;;;;4971002;28;20148;-51
2024/02/16 16:28:00;;;;;;;15.68;9.27;;;;;;;;;;4974056;28;20141;-65
2024/02/16 16:30:47;;;;;;;13.65;8.80;;;;;;;;;;4973748;28;20069;-62
2024/02/16 16:33:41;;;;;;;13.73;9.07;;;;;;;;;;4976901;28;20043;-63
2024/02/16 16:36:29;;;;;;;11.43;7.47;;;;;;;;;;4973740;28;20391;-63
2024/02/16 16:39:24;;;;;;;11.90;7.75;;;;;;;;;;4973833;28;20523;-62
2024/02/16 16:42:10;;;;;;;14.15;8.82;;;;;;;;;;4975467;28;20054;-63
2024/02/16 16:45:05;;;;;;;11.45;8.23;;;;;;;;;;4972384;28;20076;-62
2024/02/16 16:47:52;;;;;;;14.65;9.15;;;;;;;;;;4973795;28;20054;-57
2024/02/16 16:50:48;;;;;;;13.32;8.30;;;;;;;;;;4975353;28;20092;-53
2024/02/16 16:53:34;;;;;;;10.38;7.07;;;;;;;;;;4973916;28;20288;-50
2024/02/16 16:56:35;;;;;;;8.48;5.47;;;;;;;;;;4967702;28;20170;-48
2024/02/16 16:59:43;;;;;;;10.30;5.25;;;;;;;;;;4975820;28;20065;-46
2024/02/16 17:02:44;;;;;;;5.97;4.70;;;;;;;;;;4972140;28;20149;-46
2024/02/16 17:05:31;;;;;;;6.60;4.57;;;;;;;;;;4975809;28;20096;-58